Noemi — V7HY6 — position and weather

sailwx.info

Track history (hours):
 
Tides and Currents Weather Stations Pressure Air Temp Water Temp Dewpoint Dewpoint Depression Visibility Wind Speed Wind Dir Waves Ship Positions

Noemi

Last reported at 2017-Jan-08 12:32 UTC. Time now 2017-Jan-19 13:06 UTC.
Position N 02°00' E 102°12'.
Warning: this ship's position is 11 days out of date.

Length 229 m; draft 8 m.

Type: Tanker. MMSI: 538002335.

Date/timePositionNaut miles runAvg speedWind from/ knotsBaromVisibWave heightAir tempDewpointWater temp
2017-Jan-08 12:32N 02°00' E 102°12'1414.4
2017-Jan-08 11:33N 01°53' E 102°24'1414.1
2017-Jan-08 10:33N 01°48' E 102°37'2813.9
2017-Jan-08 08:31N 01°35' E 103°02'4113.9
2017-Jan-08 05:32N 01°12' E 103°37'10 9.9
2017-Jan-08 04:33N 01°10' E 103°46'5 4.8
2017-Jan-08 03:33N 01°14' E 103°46'0 0.0
2017-Jan-06 08:33N 01°14' E 103°46'0 0.0
2017-Jan-05 18:07N 01°14' E 103°46'0 0.5
2017-Jan-05 17:33N 01°14' E 103°46'3 3.1
2017-Jan-05 16:33N 01°13' E 103°49'7 6.5
2017-Jan-05 15:33N 01°15' E 103°55'0 0.3
2017-Jan-05 14:12N 01°15' E 103°55'0 0.0
2017-Jan-05 12:30N 01°15' E 103°55'0 0.0
2017-Jan-05 09:24N 01°15' E 103°55'0 0.1
2017-Jan-05 06:24N 01°15' E 103°55'0 0.0
2017-Jan-05 05:18N 01°15' E 103°55'0 0.0
2017-Jan-05 04:30N 01°15' E 103°55'0 0.0
2017-Jan-05 02:24N 01°15' E 103°55'0 0.0
2017-Jan-05 00:18N 01°15' E 103°55'0 0.1
2017-Jan-04 23:15N 01°15' E 103°55'0 0.0
2017-Jan-04 22:07N 01°15' E 103°55'0 0.1
2017-Jan-04 21:21N 01°15' E 103°55'0 0.0
2017-Jan-04 20:18N 01°15' E 103°55'0 0.0
2017-Jan-04 16:24N 01°15' E 103°55'0 0.0
2017-Jan-04 15:18N 01°15' E 103°55'0 0.2
2017-Jan-04 14:03N 01°15' E 103°55'0 0.0
2017-Jan-04 13:18N 01°15' E 103°55'0 0.0
2017-Jan-04 12:30N 01°15' E 103°55'0 0.0
2017-Jan-04 11:33N 01°15' E 103°55'0 0.0
2017-Jan-04 10:30N 01°15' E 103°55'0 0.0
2017-Jan-04 09:30N 01°15' E 103°55'0 0.1
2017-Jan-04 08:24N 01°15' E 103°55'0 0.1
2017-Jan-04 07:12N 01°15' E 103°55'0 0.0
2017-Jan-04 04:12N 01°15' E 103°55'0 0.0
2017-Jan-04 03:21N 01°15' E 103°55'0 0.0
2017-Jan-04 02:21N 01°15' E 103°55'0 0.0
2017-Jan-04 00:18N 01°15' E 103°55'0 0.0
2017-Jan-03 22:18N 01°15' E 103°55'0 0.1
2017-Jan-03 21:27N 01°15' E 103°55'0 0.0
2017-Jan-03 19:15N 01°15' E 103°55'0 0.0
2017-Jan-03 18:21N 01°15' E 103°55'0 0.0
2017-Jan-03 17:27N 01°15' E 103°55'0 0.0
2017-Jan-03 15:19N 01°15' E 103°55'0 0.0
2017-Jan-03 10:30N 01°15' E 103°55'0 0.0
2017-Jan-03 09:24N 01°15' E 103°55'0 0.1
2017-Jan-03 07:09N 01°16' E 103°55'0 0.2
2017-Jan-03 06:27N 01°15' E 103°55'0 0.1
2017-Jan-03 05:30N 01°15' E 103°55'0 0.0
2017-Jan-03 04:33N 01°15' E 103°55'0 0.0
2017-Jan-03 03:18N 01°15' E 103°55'0 0.0
2017-Jan-03 02:27N 01°15' E 103°55'0 0.0
2017-Jan-03 01:30N 01°15' E 103°55'0 0.0
2017-Jan-03 00:33N 01°15' E 103°55'0 0.0
2017-Jan-02 23:28N 01°15' E 103°55'0 0.0
2017-Jan-02 21:15N 01°15' E 103°55'0 0.0
2017-Jan-02 20:06N 01°15' E 103°55'0 0.0
2017-Jan-02 17:30N 01°15' E 103°55'0 0.1
2017-Jan-02 16:22N 01°15' E 103°55'0 0.1
2017-Jan-02 15:24N 01°15' E 103°55'0 0.2
2017-Jan-02 14:30N 01°15' E 103°55'0 0.1
2017-Jan-02 13:06N 01°16' E 103°55'0 0.1
2017-Jan-02 12:30N 01°16' E 103°55'0 0.1
2017-Jan-02 11:33N 01°15' E 103°55'0 0.0
2017-Jan-02 09:06N 01°15' E 103°55'0 0.1
2017-Jan-02 06:30N 01°16' E 103°55'0 0.1
2017-Jan-02 05:18N 01°15' E 103°55'0 0.1
2017-Jan-02 04:24N 01°15' E 103°55'0 0.0
2017-Jan-02 03:18N 01°15' E 103°55'0 0.0
2017-Jan-02 01:27N 01°15' E 103°55'0 0.0
2017-Jan-02 00:03N 01°15' E 103°55'0 0.0
2017-Jan-01 23:27N 01°15' E 103°55'0 0.0
2017-Jan-01 21:24N 01°15' E 103°55'0 0.0
2017-Jan-01 19:33N 01°15' E 103°55'0 0.0
2017-Jan-01 18:18N 01°15' E 103°55'0 0.0
2017-Jan-01 17:21N 01°15' E 103°55'0 0.1
2017-Jan-01 16:30N 01°15' E 103°55'0 0.0
2017-Jan-01 15:31N 01°15' E 103°55'0 0.1
2017-Jan-01 14:33N 01°15' E 103°55'0 0.2
2017-Jan-01 13:03N 01°15' E 103°55'0 0.0
2017-Jan-01 12:30N 01°15' E 103°55'0 0.0
2017-Jan-01 11:03N 01°15' E 103°55'0 0.0
2017-Jan-01 10:30N 01°15' E 103°55'0 0.0
2017-Jan-01 07:33N 01°16' E 103°55'0 0.2
2017-Jan-01 06:12N 01°15' E 103°55'0 0.0
2017-Jan-01 04:18N 01°15' E 103°55'0 0.0
2017-Jan-01 03:12N 01°15' E 103°55'0 0.0
2017-Jan-01 02:30N 01°15' E 103°55'0 0.0
2017-Jan-01 01:10N 01°15' E 103°55'0 0.0
2017-Jan-01 00:33N 01°15' E 103°55'0 0.0
2016-Dec-31 23:20N 01°15' E 103°55'0 0.0
2016-Dec-31 21:31N 01°15' E 103°55'0 0.0
2016-Dec-31 20:31N 01°15' E 103°55'0 0.0
2016-Dec-31 19:13N 01°15' E 103°55'0 0.0
2016-Dec-31 18:31N 01°15' E 103°55'0 0.0
2016-Dec-31 17:25N 01°15' E 103°55'0 0.0
2016-Dec-31 16:31N 01°15' E 103°55'0 0.0
2016-Dec-31 15:07N 01°15' E 103°55'0 0.0
2016-Dec-31 14:31N 01°15' E 103°55'0 0.0
2016-Dec-31 07:28N 01°15' E 103°55'0 0.0
2016-Dec-31 06:07N 01°15' E 103°55'0 0.1
2016-Dec-31 04:31N 01°15' E 103°55'0 0.1
2016-Dec-31 03:05N 01°15' E 103°55'0 0.0
2016-Dec-31 02:31N 01°15' E 103°55'0 0.0
2016-Dec-31 01:31N 01°15' E 103°55'0 0.0
2016-Dec-31 00:20N 01°15' E 103°55'0 0.0
2016-Dec-30 23:31N 01°15' E 103°55'0 0.0
2016-Dec-30 21:16N 01°15' E 103°55'0 0.0
2016-Dec-30 20:19N 01°15' E 103°55'0 0.0
2016-Dec-30 19:28N 01°15' E 103°55'0 0.0
2016-Dec-30 18:31N 01°15' E 103°55'0 0.0
2016-Dec-30 17:31N 01°15' E 103°55'0 0.0
2016-Dec-30 16:31N 01°15' E 103°55'0 0.1
2016-Dec-30 15:31N 01°15' E 103°55'0 0.1
2016-Dec-30 14:28N 01°15' E 103°55'0 0.1
2016-Dec-30 12:31N 01°15' E 103°55'0 0.0
2016-Dec-30 09:07N 01°16' E 103°55'0 0.0
2016-Dec-30 08:25N 01°16' E 103°55'0 0.0
2016-Dec-30 06:31N 01°15' E 103°55'0 0.1
2016-Dec-30 03:14N 01°15' E 103°55'0 0.1
2016-Dec-30 02:04N 01°15' E 103°55'0 0.0
2016-Dec-30 01:25N 01°15' E 103°55'0 0.0
2016-Dec-29 23:04N 01°15' E 103°55'0 0.0
2016-Dec-29 20:10N 01°15' E 103°55'0 0.0
2016-Dec-29 19:22N 01°15' E 103°55'0 0.0
2016-Dec-29 18:31N 01°15' E 103°55'0 0.0
2016-Dec-29 16:16N 01°15' E 103°55'0 0.0
2016-Dec-29 15:07N 01°15' E 103°55'0 0.0
2016-Dec-29 14:31N 01°15' E 103°55'  
Track history (hours):
 
Tides and Currents Weather Stations Pressure Air Temp Water Temp Dewpoint Dewpoint Depression Visibility Wind Speed Wind Dir Waves Ship Positions

Noemi

Last reported at 2017-Jan-08 12:32 UTC. Time now 2017-Jan-19 13:06 UTC.
Position N 02°00' E 102°12'.
Warning: this ship's position is 11 days out of date.

Length 229 m; draft 8 m.

Type: Tanker. MMSI: 538002335.

Date/timePositionNaut miles runAvg speedWind from/ knotsBaromVisibWave heightAir tempDewpointWater temp
2017-Jan-08 12:32N 02°00' E 102°12'1414.4
2017-Jan-08 11:33N 01°53' E 102°24'1414.1
2017-Jan-08 10:33N 01°48' E 102°37'2813.9
2017-Jan-08 08:31N 01°35' E 103°02'4113.9
2017-Jan-08 05:32N 01°12' E 103°37'10 9.9
2017-Jan-08 04:33N 01°10' E 103°46'5 4.8
2017-Jan-08 03:33N 01°14' E 103°46'0 0.0
2017-Jan-06 08:33N 01°14' E 103°46'0 0.0
2017-Jan-05 18:07N 01°14' E 103°46'0 0.5
2017-Jan-05 17:33N 01°14' E 103°46'3 3.1
2017-Jan-05 16:33N 01°13' E 103°49'7 6.5
2017-Jan-05 15:33N 01°15' E 103°55'0 0.3
2017-Jan-05 14:12N 01°15' E 103°55'0 0.0
2017-Jan-05 12:30N 01°15' E 103°55'0 0.0
2017-Jan-05 09:24N 01°15' E 103°55'0 0.1
2017-Jan-05 06:24N 01°15' E 103°55'0 0.0
2017-Jan-05 05:18N 01°15' E 103°55'0 0.0
2017-Jan-05 04:30N 01°15' E 103°55'0 0.0
2017-Jan-05 02:24N 01°15' E 103°55'0 0.0
2017-Jan-05 00:18N 01°15' E 103°55'0 0.1
2017-Jan-04 23:15N 01°15' E 103°55'0 0.0
2017-Jan-04 22:07N 01°15' E 103°55'0 0.1
2017-Jan-04 21:21N 01°15' E 103°55'0 0.0
2017-Jan-04 20:18N 01°15' E 103°55'0 0.0
2017-Jan-04 16:24N 01°15' E 103°55'0 0.0
2017-Jan-04 15:18N 01°15' E 103°55'0 0.2
2017-Jan-04 14:03N 01°15' E 103°55'0 0.0
2017-Jan-04 13:18N 01°15' E 103°55'0 0.0
2017-Jan-04 12:30N 01°15' E 103°55'0 0.0
2017-Jan-04 11:33N 01°15' E 103°55'0 0.0
2017-Jan-04 10:30N 01°15' E 103°55'0 0.0
2017-Jan-04 09:30N 01°15' E 103°55'0 0.1
2017-Jan-04 08:24N 01°15' E 103°55'0 0.1
2017-Jan-04 07:12N 01°15' E 103°55'0 0.0
2017-Jan-04 04:12N 01°15' E 103°55'0 0.0
2017-Jan-04 03:21N 01°15' E 103°55'0 0.0
2017-Jan-04 02:21N 01°15' E 103°55'0 0.0
2017-Jan-04 00:18N 01°15' E 103°55'0 0.0
2017-Jan-03 22:18N 01°15' E 103°55'0 0.1
2017-Jan-03 21:27N 01°15' E 103°55'0 0.0
2017-Jan-03 19:15N 01°15' E 103°55'0 0.0
2017-Jan-03 18:21N 01°15' E 103°55'0 0.0
2017-Jan-03 17:27N 01°15' E 103°55'0 0.0
2017-Jan-03 15:19N 01°15' E 103°55'0 0.0
2017-Jan-03 10:30N 01°15' E 103°55'0 0.0
2017-Jan-03 09:24N 01°15' E 103°55'0 0.1
2017-Jan-03 07:09N 01°16' E 103°55'0 0.2
2017-Jan-03 06:27N 01°15' E 103°55'0 0.1
2017-Jan-03 05:30N 01°15' E 103°55'0 0.0
2017-Jan-03 04:33N 01°15' E 103°55'0 0.0
2017-Jan-03 03:18N 01°15' E 103°55'0 0.0
2017-Jan-03 02:27N 01°15' E 103°55'0 0.0
2017-Jan-03 01:30N 01°15' E 103°55'0 0.0
2017-Jan-03 00:33N 01°15' E 103°55'0 0.0
2017-Jan-02 23:28N 01°15' E 103°55'0 0.0
2017-Jan-02 21:15N 01°15' E 103°55'0 0.0
2017-Jan-02 20:06N 01°15' E 103°55'0 0.0
2017-Jan-02 17:30N 01°15' E 103°55'0 0.1
2017-Jan-02 16:22N 01°15' E 103°55'0 0.1
2017-Jan-02 15:24N 01°15' E 103°55'0 0.2
2017-Jan-02 14:30N 01°15' E 103°55'0 0.1
2017-Jan-02 13:06N 01°16' E 103°55'0 0.1
2017-Jan-02 12:30N 01°16' E 103°55'0 0.1
2017-Jan-02 11:33N 01°15' E 103°55'0 0.0
2017-Jan-02 09:06N 01°15' E 103°55'0 0.1
2017-Jan-02 06:30N 01°16' E 103°55'0 0.1
2017-Jan-02 05:18N 01°15' E 103°55'0 0.1
2017-Jan-02 04:24N 01°15' E 103°55'0 0.0
2017-Jan-02 03:18N 01°15' E 103°55'0 0.0
2017-Jan-02 01:27N 01°15' E 103°55'0 0.0
2017-Jan-02 00:03N 01°15' E 103°55'0 0.0
2017-Jan-01 23:27N 01°15' E 103°55'0 0.0
2017-Jan-01 21:24N 01°15' E 103°55'0 0.0
2017-Jan-01 19:33N 01°15' E 103°55'0 0.0
2017-Jan-01 18:18N 01°15' E 103°55'0 0.0
2017-Jan-01 17:21N 01°15' E 103°55'0 0.1
2017-Jan-01 16:30N 01°15' E 103°55'0 0.0
2017-Jan-01 15:31N 01°15' E 103°55'0 0.1
2017-Jan-01 14:33N 01°15' E 103°55'0 0.2
2017-Jan-01 13:03N 01°15' E 103°55'0 0.0
2017-Jan-01 12:30N 01°15' E 103°55'0 0.0
2017-Jan-01 11:03N 01°15' E 103°55'0 0.0
2017-Jan-01 10:30N 01°15' E 103°55'0 0.0
2017-Jan-01 07:33N 01°16' E 103°55'0 0.2
2017-Jan-01 06:12N 01°15' E 103°55'0 0.0
2017-Jan-01 04:18N 01°15' E 103°55'0 0.0
2017-Jan-01 03:12N 01°15' E 103°55'0 0.0
2017-Jan-01 02:30N 01°15' E 103°55'0 0.0
2017-Jan-01 01:10N 01°15' E 103°55'0 0.0
2017-Jan-01 00:33N 01°15' E 103°55'0 0.0
2016-Dec-31 23:20N 01°15' E 103°55'0 0.0
2016-Dec-31 21:31N 01°15' E 103°55'0 0.0
2016-Dec-31 20:31N 01°15' E 103°55'0 0.0
2016-Dec-31 19:13N 01°15' E 103°55'0 0.0
2016-Dec-31 18:31N 01°15' E 103°55'0 0.0
2016-Dec-31 17:25N 01°15' E 103°55'0 0.0
2016-Dec-31 16:31N 01°15' E 103°55'0 0.0
2016-Dec-31 15:07N 01°15' E 103°55'0 0.0
2016-Dec-31 14:31N 01°15' E 103°55'0 0.0
2016-Dec-31 07:28N 01°15' E 103°55'0 0.0
2016-Dec-31 06:07N 01°15' E 103°55'0 0.1
2016-Dec-31 04:31N 01°15' E 103°55'0 0.1
2016-Dec-31 03:05N 01°15' E 103°55'0 0.0
2016-Dec-31 02:31N 01°15' E 103°55'0 0.0
2016-Dec-31 01:31N 01°15' E 103°55'0 0.0
2016-Dec-31 00:20N 01°15' E 103°55'0 0.0
2016-Dec-30 23:31N 01°15' E 103°55'0 0.0
2016-Dec-30 21:16N 01°15' E 103°55'0 0.0
2016-Dec-30 20:19N 01°15' E 103°55'0 0.0
2016-Dec-30 19:28N 01°15' E 103°55'0 0.0
2016-Dec-30 18:31N 01°15' E 103°55'0 0.0
2016-Dec-30 17:31N 01°15' E 103°55'0 0.0
2016-Dec-30 16:31N 01°15' E 103°55'0 0.1
2016-Dec-30 15:31N 01°15' E 103°55'0 0.1
2016-Dec-30 14:28N 01°15' E 103°55'0 0.1
2016-Dec-30 12:31N 01°15' E 103°55'0 0.0
2016-Dec-30 09:07N 01°16' E 103°55'0 0.0
2016-Dec-30 08:25N 01°16' E 103°55'0 0.0
2016-Dec-30 06:31N 01°15' E 103°55'0 0.1
2016-Dec-30 03:14N 01°15' E 103°55'0 0.1
2016-Dec-30 02:04N 01°15' E 103°55'0 0.0
2016-Dec-30 01:25N 01°15' E 103°55'0 0.0
2016-Dec-29 23:04N 01°15' E 103°55'0 0.0
2016-Dec-29 20:10N 01°15' E 103°55'0 0.0
2016-Dec-29 19:22N 01°15' E 103°55'0 0.0
2016-Dec-29 18:31N 01°15' E 103°55'0 0.0
2016-Dec-29 16:16N 01°15' E 103°55'0 0.0
2016-Dec-29 15:07N 01°15' E 103°55'0 0.0
2016-Dec-29 14:31N 01°15' E 103°55'  

Dump ship's entire track history